Time;durP1;ratioP1;P1;durP2;ratioP2;P2;SDS_P1;SDS_P2;PMS_P1;PMS_P2;Temp;Humidity;BMP_temperature;BMP_pressure;BME280_temperature;BME280_humidity;BME280_pressure;Samples;Min_cycle;Max_cycle;Signal;HPM_P1;HPM_P2
2022/07/02 00:01:58;;;;;;;6.60;4.20;;;14.10;99.90;;;;;;4991338;28;20180;-69
2022/07/02 00:04:29;;;;;;;4.00;3.60;;;14.10;99.90;;;;;;4993749;28;20175;-68
2022/07/02 00:06:55;;;;;;;4.87;4.40;;;14.10;99.90;;;;;;4999090;28;20211;-69
2022/07/02 00:09:21;;;;;;;4.40;4.00;;;14.10;99.90;;;;;;4992090;28;20443;-69
2022/07/02 00:11:49;;;;;;;4.67;4.20;;;14.10;99.90;;;;;;4991361;28;20211;-69
2022/07/02 00:14:15;;;;;;;5.30;4.13;;;14.00;99.90;;;;;;4989884;28;20187;-69
2022/07/02 00:16:47;;;;;;;4.03;3.73;;;14.10;99.90;;;;;;4990471;28;20821;-69
2022/07/02 00:19:14;;;;;;;3.93;3.53;;;14.00;99.90;;;;;;4988998;28;20986;-69
2022/07/02 00:21:40;;;;;;;6.77;3.73;;;14.00;99.90;;;;;;4990559;28;20501;-69
2022/07/02 00:24:07;;;;;;;4.87;3.90;;;14.00;99.90;;;;;;4991612;28;22745;-69
2022/07/02 00:26:38;;;;;;;4.30;3.90;;;13.90;99.90;;;;;;4989530;28;20978;-69
2022/07/02 00:29:31;;;;;;;4.23;3.87;;;13.90;99.90;;;;;;4989891;28;20538;-68
2022/07/02 00:31:57;;;;;;;4.23;3.83;;;13.90;99.90;;;;;;4992118;28;20527;-69
2022/07/02 00:34:24;;;;;;;5.93;3.53;;;13.90;99.90;;;;;;4992041;28;20434;-69
2022/07/02 00:36:51;;;;;;;3.90;3.50;;;13.90;99.90;;;;;;4990319;28;20805;-69
2022/07/02 00:39:16;;;;;;;6.00;3.97;;;13.90;99.90;;;;;;4992462;28;20474;-69
2022/07/02 00:41:44;;;;;;;4.20;3.90;;;13.90;99.90;;;;;;4992394;28;20526;-69
2022/07/02 00:44:10;;;;;;;3.40;3.20;;;13.90;99.90;;;;;;4989796;28;20230;-69
2022/07/02 00:46:37;;;;;;;3.77;3.47;;;13.90;99.90;;;;;;4989272;28;20479;-69
2022/07/02 00:49:03;;;;;;;4.87;3.30;;;13.90;99.90;;;;;;4989688;28;20502;-69
2022/07/02 00:51:29;;;;;;;3.30;3.10;;;13.80;99.90;;;;;;4973950;28;20438;-69
2022/07/02 00:53:54;;;;;;;3.97;3.57;;;13.80;99.90;;;;;;4992396;28;20189;-69
2022/07/02 00:56:20;;;;;;;5.03;3.37;;;13.80;99.90;;;;;;4989189;28;20208;-69
2022/07/02 00:58:46;;;;;;;3.80;3.50;;;13.80;99.90;;;;;;4989766;28;20207;-69
2022/07/02 01:01:12;;;;;;;4.00;3.70;;;13.90;99.90;;;;;;4990513;28;20229;-69
2022/07/02 01:03:42;;;;;;;3.70;3.40;;;13.90;99.90;;;;;;4989922;28;20443;-69
2022/07/02 01:06:07;;;;;;;8.80;3.53;;;13.80;99.90;;;;;;4990109;28;20191;-69
2022/07/02 01:11:19;;;;;;;3.73;3.50;;;13.90;99.90;;;;;;4990509;28;20245;-69
2022/07/02 01:13:44;;;;;;;3.60;3.30;;;13.90;99.90;;;;;;4991178;28;20439;-69
2022/07/02 01:16:10;;;;;;;4.10;3.80;;;14.00;99.90;;;;;;4988217;28;20187;-69
2022/07/02 01:18:36;;;;;;;3.47;3.23;;;14.00;99.90;;;;;;4989252;28;20215;-69
2022/07/02 01:21:02;;;;;;;4.07;3.30;;;14.00;99.90;;;;;;4990998;28;20187;-69
2022/07/02 01:23:28;;;;;;;3.80;3.50;;;13.90;99.90;;;;;;4989634;28;20439;-69
2022/07/02 01:25:54;;;;;;;5.17;3.63;;;13.90;99.90;;;;;;4989774;28;20949;-69
2022/07/02 01:28:21;;;;;;;6.57;3.33;;;14.00;99.90;;;;;;4988185;28;20234;-69
2022/07/02 01:30:48;;;;;;;4.87;3.80;;;13.90;99.90;;;;;;4986863;28;20418;-69
2022/07/02 01:33:13;;;;;;;3.27;3.03;;;13.90;99.90;;;;;;4990314;28;20427;-69
2022/07/02 01:35:39;;;;;;;3.90;3.50;;;13.80;99.90;;;;;;4994082;28;20497;-69
2022/07/02 01:38:04;;;;;;;4.97;4.57;;;13.70;99.90;;;;;;4991251;28;20261;-69
2022/07/02 01:40:30;;;;;;;3.93;3.63;;;13.70;99.90;;;;;;4989975;28;20202;-69
2022/07/02 01:42:55;;;;;;;7.23;4.63;;;13.60;99.90;;;;;;4988731;28;20191;-69
2022/07/02 01:45:21;;;;;;;5.70;5.30;;;13.60;99.90;;;;;;4989265;28;20179;-69
2022/07/02 01:47:47;;;;;;;5.33;4.93;;;13.60;99.90;;;;;;4990139;28;20223;-69
2022/07/02 01:50:13;;;;;;;5.27;4.87;;;13.60;99.90;;;;;;4989905;28;20190;-69
2022/07/02 01:52:38;;;;;;;4.90;4.50;;;13.60;99.90;;;;;;4988706;28;20180;-69
2022/07/02 01:55:04;;;;;;;4.63;4.23;;;13.50;99.90;;;;;;4991506;28;20501;-69
2022/07/02 01:57:33;;;;;;;5.03;4.63;;;13.50;99.90;;;;;;4989717;28;20258;-69
2022/07/02 01:59:59;;;;;;;4.23;3.93;;;13.60;99.90;;;;;;4989617;28;20443;-69
2022/07/02 02:02:25;;;;;;;4.27;3.97;;;13.60;99.90;;;;;;4990405;28;20442;-69
2022/07/02 02:04:50;;;;;;;4.37;4.07;;;13.60;99.90;;;;;;4987761;28;20641;-70
2022/07/02 02:07:16;;;;;;;4.30;4.00;;;13.60;99.90;;;;;;4989091;28;20626;-69
2022/07/02 02:09:41;;;;;;;4.83;4.43;;;13.60;99.90;;;;;;4990667;28;20212;-70
2022/07/02 02:12:07;;;;;;;4.10;3.80;;;13.50;99.90;;;;;;4989570;28;20654;-69
2022/07/02 02:14:33;;;;;;;4.33;4.00;;;13.50;99.90;;;;;;4989310;28;20218;-69
2022/07/02 02:16:59;;;;;;;5.60;4.43;;;13.40;99.90;;;;;;4988960;28;20299;-69
2022/07/02 02:19:25;;;;;;;7.07;4.03;;;13.30;99.90;;;;;;4989395;28;20665;-69
2022/07/02 02:21:50;;;;;;;4.40;3.70;;;13.30;99.90;;;;;;4989088;28;20441;-69
2022/07/02 02:24:16;;;;;;;4.60;4.30;;;13.30;99.90;;;;;;4989338;28;21994;-69
2022/07/02 02:26:41;;;;;;;5.67;3.87;;;13.30;99.90;;;;;;4992001;28;20211;-69
2022/07/02 02:29:07;;;;;;;4.43;4.10;;;13.30;99.90;;;;;;4990464;28;20820;-69
2022/07/02 02:31:32;;;;;;;4.00;3.70;;;13.30;99.90;;;;;;4988320;28;20191;-69
2022/07/02 02:33:58;;;;;;;6.90;3.97;;;13.20;99.90;;;;;;4989814;28;20188;-69
2022/07/02 02:36:23;;;;;;;5.00;4.10;;;13.30;99.90;;;;;;4989796;28;20245;-69
2022/07/02 02:38:49;;;;;;;4.50;4.20;;;13.20;99.90;;;;;;4991498;28;20272;-69
2022/07/02 02:41:15;;;;;;;4.80;4.20;;;13.20;99.90;;;;;;4990967;28;20589;-69
2022/07/02 02:43:40;;;;;;;5.03;4.63;;;13.20;99.90;;;;;;4993994;28;20188;-69
2022/07/02 02:46:06;;;;;;;4.60;4.20;;;13.20;99.90;;;;;;4992389;28;20719;-69
2022/07/02 02:48:34;;;;;;;4.97;4.47;;;13.10;99.90;;;;;;4993733;28;20184;-69
2022/07/02 02:51:00;;;;;;;5.03;4.60;;;13.10;99.90;;;;;;4999866;28;20271;-69
2022/07/02 02:53:25;;;;;;;6.10;5.60;;;13.10;99.90;;;;;;4998462;28;20537;-69
2022/07/02 02:55:51;;;;;;;5.20;4.70;;;13.10;99.90;;;;;;4993680;28;20184;-69
2022/07/02 02:58:17;;;;;;;6.17;5.40;;;13.10;99.90;;;;;;4991428;28;20191;-69
2022/07/02 03:00:42;;;;;;;5.37;4.97;;;13.10;99.90;;;;;;4993716;28;20541;-69
2022/07/02 03:03:08;;;;;;;5.43;5.00;;;13.00;99.90;;;;;;4992517;28;20255;-69
2022/07/02 03:05:33;;;;;;;8.33;5.90;;;13.00;99.90;;;;;;4991618;28;20270;-69
2022/07/02 03:07:59;;;;;;;6.40;5.90;;;13.10;99.90;;;;;;4993160;28;20681;-70
2022/07/02 03:10:24;;;;;;;5.60;5.03;;;13.10;99.90;;;;;;4993706;28;20183;-69
2022/07/02 03:12:50;;;;;;;4.90;4.50;;;13.10;99.90;;;;;;4992159;28;20560;-69
2022/07/02 03:15:16;;;;;;;9.80;5.23;;;13.10;99.90;;;;;;4992186;28;20226;-69
2022/07/02 03:17:41;;;;;;;5.33;4.83;;;13.00;99.90;;;;;;4990601;28;20792;-69
2022/07/02 03:20:08;;;;;;;7.63;6.33;;;13.00;99.90;;;;;;4994922;28;20203;-70
2022/07/02 03:22:33;;;;;;;5.27;4.77;;;13.00;99.90;;;;;;5004443;28;20716;-69
2022/07/02 03:24:59;;;;;;;5.17;4.77;;;13.00;99.90;;;;;;5006092;28;20529;-69
2022/07/02 03:27:24;;;;;;;9.10;5.07;;;13.00;99.90;;;;;;5001210;28;20203;-70
2022/07/02 03:29:51;;;;;;;5.97;5.13;;;13.00;99.90;;;;;;4995204;28;20168;-69
2022/07/02 03:32:17;;;;;;;7.50;5.73;;;13.00;99.90;;;;;;5000190;28;20598;-69
2022/07/02 03:34:42;;;;;;;6.10;5.60;;;13.00;99.90;;;;;;4998207;28;20473;-70
2022/07/02 03:37:08;;;;;;;6.00;4.73;;;13.00;99.90;;;;;;5003394;28;20199;-70
2022/07/02 03:39:33;;;;;;;6.10;5.60;;;13.00;99.90;;;;;;4996373;28;20281;-70
2022/07/02 03:41:59;;;;;;;5.57;5.07;;;13.10;99.90;;;;;;5001485;28;20199;-70
2022/07/02 03:44:24;;;;;;;5.33;4.60;;;13.10;99.90;;;;;;5003030;28;20230;-70
2022/07/02 03:46:50;;;;;;;5.60;5.13;;;13.10;99.90;;;;;;4994459;28;20234;-70
2022/07/02 03:49:15;;;;;;;5.30;4.90;;;13.10;99.90;;;;;;5000690;28;20183;-69
2022/07/02 03:51:41;;;;;;;5.93;4.90;;;13.20;99.90;;;;;;4998875;28;20267;-70
2022/07/02 03:54:06;;;;;;;5.93;4.67;;;13.20;99.90;;;;;;5002634;28;20187;-70
2022/07/02 03:56:32;;;;;;;14.30;5.67;;;13.30;99.90;;;;;;4999312;28;20214;-70
2022/07/02 03:58:57;;;;;;;5.20;4.70;;;13.40;99.90;;;;;;5002325;28;20233;-69
2022/07/02 04:01:23;;;;;;;5.13;4.30;;;13.50;99.90;;;;;;4994379;28;20215;-70
2022/07/02 04:03:48;;;;;;;5.03;4.63;;;13.50;99.90;;;;;;5001747;28;20321;-70
2022/07/02 04:06:14;;;;;;;4.60;4.30;;;13.60;99.90;;;;;;4997404;28;20204;-70
2022/07/02 04:08:39;;;;;;;4.60;3.90;;;13.70;99.90;;;;;;4996177;28;20183;-71
2022/07/02 04:11:05;;;;;;;9.30;4.10;;;13.70;99.90;;;;;;4998812;28;20184;-71
2022/07/02 04:13:30;;;;;;;6.03;4.93;;;13.80;99.90;;;;;;5003452;28;20179;-69
2022/07/02 04:15:56;;;;;;;4.97;4.57;;;13.80;99.90;;;;;;5000175;28;20588;-70
2022/07/02 04:18:21;;;;;;;4.57;4.17;;;14.00;99.90;;;;;;5002678;28;20217;-71
2022/07/02 04:20:47;;;;;;;4.50;4.20;;;14.10;99.90;;;;;;5002640;28;20198;-70
2022/07/02 04:23:13;;;;;;;6.43;5.93;;;14.10;99.90;;;;;;5002520;28;20203;-71
2022/07/02 04:25:38;;;;;;;5.10;4.23;;;14.20;99.90;;;;;;5004471;28;20174;-71
2022/07/02 04:28:04;;;;;;;4.70;4.33;;;14.30;99.90;;;;;;5002257;28;20210;-71
2022/07/02 04:30:29;;;;;;;5.07;4.67;;;14.40;99.90;;;;;;4996509;28;20238;-71
2022/07/02 04:32:55;;;;;;;4.80;4.40;;;14.40;99.90;;;;;;5000987;28;20187;-71
2022/07/02 04:35:21;;;;;;;7.40;6.60;;;14.50;99.90;;;;;;5002073;28;20559;-71
2022/07/02 04:37:46;;;;;;;6.60;6.00;;;14.60;99.90;;;;;;5004280;28;20325;-72
2022/07/02 04:40:12;;;;;;;8.77;8.07;;;14.70;99.90;;;;;;5000296;28;20175;-71
2022/07/02 04:42:38;;;;;;;8.17;7.57;;;14.60;99.90;;;;;;5000776;28;20190;-72
2022/07/02 04:45:04;;;;;;;8.57;7.80;;;14.60;99.90;;;;;;4997587;28;20445;-69
2022/07/02 04:47:29;;;;;;;8.93;8.13;;;14.60;99.90;;;;;;5000795;28;20211;-71
2022/07/02 04:49:55;;;;;;;8.07;7.33;;;14.60;99.90;;;;;;4989729;28;21028;-72
2022/07/02 04:52:21;;;;;;;8.87;8.07;;;14.80;99.90;;;;;;4990260;28;21308;-71
2022/07/02 04:54:46;;;;;;;8.17;7.37;;;14.80;99.90;;;;;;4990674;28;20262;-70
2022/07/02 04:57:12;;;;;;;8.10;7.30;;;15.00;99.90;;;;;;4990381;28;20610;-72
2022/07/02 04:59:37;;;;;;;9.17;8.37;;;15.10;99.90;;;;;;4989463;28;20689;-71
2022/07/02 05:02:03;;;;;;;8.90;8.00;;;15.20;99.90;;;;;;4990346;28;20185;-71
2022/07/02 05:04:29;;;;;;;7.53;6.90;;;14.80;99.90;;;;;;4985954;28;20194;-71
2022/07/02 05:06:54;;;;;;;7.70;6.90;;;15.20;99.90;;;;;;4988264;28;20208;-71
2022/07/02 05:09:20;;;;;;;7.90;7.20;;;15.30;99.90;;;;;;4988024;28;20175;-71
2022/07/02 05:11:45;;;;;;;8.33;7.63;;;15.30;99.90;;;;;;4987442;28;20603;-71
2022/07/02 05:14:11;;;;;;;7.90;7.20;;;15.30;99.90;;;;;;4996940;28;20201;-70
2022/07/02 05:16:36;;;;;;;7.57;6.87;;;15.50;99.90;;;;;;5007188;28;20233;-69
2022/07/02 05:19:02;;;;;;;6.57;5.93;;;15.60;99.90;;;;;;5010821;28;20265;-72
2022/07/02 05:21:27;;;;;;;7.57;6.87;;;15.80;99.90;;;;;;5007332;28;20184;-67
2022/07/02 05:23:53;;;;;;;7.67;6.87;;;15.80;99.90;;;;;;5001132;28;20251;-71
2022/07/02 05:26:20;;;;;;;6.77;6.17;;;15.90;99.90;;;;;;5004362;28;20202;-72
2022/07/02 05:28:45;;;;;;;6.60;6.00;;;16.10;99.90;;;;;;5011487;28;20206;-70
2022/07/02 05:31:11;;;;;;;7.40;6.83;;;16.10;99.90;;;;;;5009827;28;20461;-72
2022/07/02 05:33:36;;;;;;;6.17;5.57;;;16.20;99.90;;;;;;4998473;28;20588;-71
2022/07/02 05:36:02;;;;;;;6.20;5.70;;;16.30;99.90;;;;;;4999174;28;20183;-70
2022/07/02 05:38:27;;;;;;;5.53;5.13;;;16.30;99.90;;;;;;4996318;28;20218;-72
2022/07/02 05:40:53;;;;;;;6.53;5.97;;;16.40;99.90;;;;;;4999934;28;20654;-72
2022/07/02 05:43:18;;;;;;;5.13;4.80;;;16.40;99.90;;;;;;4999423;28;20199;-70
2022/07/02 05:45:44;;;;;;;5.40;4.90;;;16.50;99.90;;;;;;4997365;28;20278;-72
2022/07/02 05:48:10;;;;;;;5.30;4.80;;;16.70;99.90;;;;;;4998501;28;20230;-69
2022/07/02 05:50:36;;;;;;;5.77;5.37;;;16.70;99.90;;;;;;4998293;28;20210;-71
2022/07/02 05:53:01;;;;;;;5.97;5.57;;;16.70;99.90;;;;;;5001967;28;20446;-70
2022/07/02 05:55:27;;;;;;;8.07;7.33;;;16.80;99.90;;;;;;4986120;28;20632;-71
2022/07/02 05:57:52;;;;;;;6.73;6.13;;;16.70;99.90;;;;;;5000525;28;20297;-72
2022/07/02 06:00:18;;;;;;;4.53;4.13;;;16.80;99.90;;;;;;4998841;28;20175;-71
2022/07/02 06:02:43;;;;;;;5.77;5.27;;;16.90;99.90;;;;;;4999514;28;20684;-72
2022/07/02 06:07:53;;;;;;;4.07;3.77;;;17.20;99.90;;;;;;5000597;28;20252;-71
2022/07/02 06:10:19;;;;;;;5.10;4.70;;;17.30;99.90;;;;;;4997886;28;20506;-71
2022/07/02 06:12:49;;;;;;;4.60;4.30;;;17.50;99.90;;;;;;4997821;28;20648;-71
2022/07/02 06:15:16;;;;;;;5.00;4.60;;;17.70;99.90;;;;;;5001816;28;20219;-72
2022/07/02 06:17:42;;;;;;;3.30;3.03;;;17.90;99.90;;;;;;5004449;28;20505;-71
2022/07/02 06:20:08;;;;;;;3.30;3.07;;;18.00;99.90;;;;;;5006019;28;20451;-69
2022/07/02 06:22:34;;;;;;;8.00;3.70;;;18.20;99.90;;;;;;5005196;28;20447;-72
2022/07/02 06:24:59;;;;;;;3.87;2.73;;;18.50;99.90;;;;;;4985886;28;20466;-70
2022/07/02 06:27:25;;;;;;;2.90;2.70;;;18.80;99.90;;;;;;5000921;28;20210;-71
2022/07/02 06:29:50;;;;;;;2.97;2.77;;;19.00;99.90;;;;;;5008864;28;20187;-70
2022/07/02 06:32:16;;;;;;;3.13;2.47;;;19.40;99.90;;;;;;5016115;28;20191;-72
2022/07/02 06:34:43;;;;;;;3.40;2.43;;;19.60;99.90;;;;;;5012147;28;20586;-72
2022/07/02 06:37:09;;;;;;;3.30;3.10;;;19.80;99.90;;;;;;5009227;28;20508;-72
2022/07/02 06:39:35;;;;;;;2.60;2.40;;;19.80;99.90;;;;;;5007720;28;20537;-72
2022/07/02 06:42:18;;;;;;;2.77;2.57;;;19.90;99.90;;;;;;5009387;28;20446;-71
2022/07/02 06:44:46;;;;;;;2.70;2.50;;;20.40;99.90;;;;;;4993783;28;20494;-72
2022/07/02 06:47:15;;;;;;;5.03;3.40;;;20.10;99.90;;;;;;5012995;28;20477;-72
2022/07/02 06:49:41;;;;;;;4.43;2.57;;;20.10;99.90;;;;;;5012644;28;20442;-71
2022/07/02 06:52:07;;;;;;;2.37;2.03;;;19.80;99.90;;;;;;5018046;28;20454;-71
2022/07/02 06:54:34;;;;;;;1.97;1.73;;;19.80;99.90;;;;;;5004919;28;20438;-75
2022/07/02 06:56:59;;;;;;;2.53;2.33;;;20.10;99.90;;;;;;4994624;28;20541;-75
2022/07/02 06:59:25;;;;;;;1.90;1.80;;;20.00;99.90;;;;;;4991835;28;20546;-74
2022/07/02 07:01:51;;;;;;;1.87;1.77;;;19.90;99.90;;;;;;4997541;28;20623;-73
2022/07/02 07:04:16;;;;;;;1.73;1.53;;;19.70;99.90;;;;;;4991472;28;20247;-70
2022/07/02 07:07:05;;;;;;;2.10;1.90;;;19.80;99.90;;;;;;4992161;28;20195;-72
2022/07/02 07:09:28;;;;;;;1.93;1.83;;;20.00;99.90;;;;;;4997038;28;20245;-72
2022/07/02 07:11:54;;;;;;;2.00;1.80;;;20.10;99.90;;;;;;4994270;28;21034;-75
2022/07/02 07:14:20;;;;;;;1.60;1.50;;;20.00;99.90;;;;;;4992726;28;20262;-74
2022/07/02 07:16:46;;;;;;;2.30;2.20;;;20.20;99.90;;;;;;4994456;28;20519;-75
2022/07/02 07:19:12;;;;;;;1.83;1.73;;;20.00;99.90;;;;;;5004596;28;20462;-73
2022/07/02 07:21:39;;;;;;;5.10;4.60;;;20.00;99.90;;;;;;4993559;28;20447;-73
2022/07/02 07:24:06;;;;;;;1.70;1.60;;;20.20;99.90;;;;;;4995232;28;20519;-71
2022/07/02 07:26:32;;;;;;;3.67;1.87;;;20.60;99.90;;;;;;4994764;28;20466;-72
2022/07/02 07:28:58;;;;;;;1.70;1.60;;;20.90;99.90;;;;;;4993607;28;20921;-72
2022/07/02 07:31:24;;;;;;;3.30;3.00;;;21.30;99.90;;;;;;4997019;28;20422;-73
2022/07/02 07:33:51;;;;;;;2.00;1.90;;;21.10;99.90;;;;;;4998664;28;20450;-72
2022/07/02 07:36:18;;;;;;;1.60;1.50;;;21.40;99.90;;;;;;4990820;28;20211;-74
2022/07/02 07:38:44;;;;;;;1.63;1.50;;;21.30;99.90;;;;;;4992480;28;21003;-74
2022/07/02 07:41:10;;;;;;;2.37;1.80;;;21.50;99.90;;;;;;5004583;28;20469;-74
2022/07/02 07:43:35;;;;;;;1.97;1.87;;;21.50;99.90;;;;;;5004189;28;20473;-75
2022/07/02 07:46:01;;;;;;;3.43;1.70;;;21.50;99.90;;;;;;5001565;28;20202;-73
2022/07/02 07:48:27;;;;;;;1.43;1.33;;;21.50;99.90;;;;;;4999528;28;20187;-72
2022/07/02 07:50:52;;;;;;;1.63;1.53;;;21.70;99.90;;;;;;4999649;28;20226;-74
2022/07/02 07:53:18;;;;;;;1.47;1.37;;;21.80;99.90;;;;;;5000008;28;22038;-75
2022/07/02 07:55:45;;;;;;;1.47;1.37;;;22.10;99.90;;;;;;5000929;28;20191;-72
2022/07/02 07:58:11;;;;;;;1.40;1.30;;;22.50;99.90;;;;;;5001189;28;20298;-74
2022/07/02 08:00:37;;;;;;;3.03;2.10;;;22.40;99.90;;;;;;5001509;28;20525;-74
2022/07/02 08:03:02;;;;;;;1.83;1.73;;;22.30;99.90;;;;;;5000044;28;20190;-73
2022/07/02 08:05:28;;;;;;;1.87;1.77;;;22.40;99.90;;;;;;5005454;28;20260;-74
2022/07/02 08:07:53;;;;;;;1.60;1.50;;;22.60;99.90;;;;;;4999588;28;20207;-75
2022/07/02 08:10:19;;;;;;;1.67;1.50;;;22.40;99.90;;;;;;5002347;28;20175;-74
2022/07/02 08:12:46;;;;;;;1.50;1.40;;;22.80;99.90;;;;;;5000542;28;20183;-74
2022/07/02 08:15:12;;;;;;;2.60;1.17;;;23.40;99.90;;;;;;5007544;28;20179;-75
2022/07/02 08:17:38;;;;;;;1.93;1.33;;;23.70;99.90;;;;;;5001322;28;20458;-73
2022/07/02 08:20:05;;;;;;;1.50;1.40;;;23.90;99.90;;;;;;4999782;28;20191;-74
2022/07/02 08:22:35;;;;;;;3.37;2.63;;;24.10;99.90;;;;;;4996660;28;20436;-74
2022/07/02 08:25:01;;;;;;;1.90;1.37;;;24.10;99.90;;;;;;5007247;28;20521;-74
2022/07/02 08:27:27;;;;;;;1.47;1.27;;;24.20;99.90;;;;;;5000796;28;20594;-74
2022/07/02 08:29:53;;;;;;;1.53;1.43;;;24.20;99.90;;;;;;4998287;28;20520;-74
2022/07/02 08:32:18;;;;;;;5.43;1.30;;;24.30;98.50;;;;;;5001148;28;20269;-74
2022/07/02 08:34:44;;;;;;;1.63;1.53;;;24.40;99.30;;;;;;5003500;28;20178;-73
2022/07/02 08:37:10;;;;;;;2.90;1.67;;;24.60;98.60;;;;;;5001507;28;20290;-74
2022/07/02 08:39:35;;;;;;;1.90;1.13;;;24.40;98.80;;;;;;5000427;28;20215;-73
2022/07/02 08:42:02;;;;;;;1.90;1.80;;;24.10;98.60;;;;;;4992577;28;20183;-74
2022/07/02 08:44:31;;;;;;;1.20;1.10;;;24.20;99.20;;;;;;4995736;28;20185;-72
2022/07/02 08:46:58;;;;;;;1.40;1.30;;;24.50;98.50;;;;;;4997102;28;20483;-73
2022/07/02 08:49:26;;;;;;;1.47;1.37;;;24.90;98.50;;;;;;4994994;28;20822;-74
2022/07/02 08:54:22;;;;;;;1.10;1.00;;;24.80;97.20;;;;;;4998819;28;20792;-74
2022/07/02 08:56:48;;;;;;;1.43;1.23;;;25.20;97.20;;;;;;5002297;28;20512;-73
2022/07/02 08:59:16;;;;;;;1.10;1.10;;;25.00;96.60;;;;;;4998426;28;20532;-74
2022/07/02 09:01:42;;;;;;;1.07;1.00;;;25.10;96.30;;;;;;4998809;28;20431;-73
2022/07/02 09:04:08;;;;;;;1.03;1.03;;;25.40;96.20;;;;;;4994909;28;20812;-73
2022/07/02 09:06:36;;;;;;;1.43;1.27;;;25.70;96.50;;;;;;4995661;28;20191;-75
2022/07/02 09:09:02;;;;;;;1.57;1.13;;;25.90;96.10;;;;;;4997668;28;20179;-74
2022/07/02 09:11:30;;;;;;;1.40;1.30;;;25.80;95.30;;;;;;4996344;28;20858;-74
2022/07/02 09:13:57;;;;;;;1.73;1.23;;;25.50;94.00;;;;;;5000280;28;20505;-74
2022/07/02 09:16:22;;;;;;;1.47;1.37;;;25.50;93.40;;;;;;4986068;28;20949;-74
2022/07/02 09:18:48;;;;;;;1.67;1.20;;;25.50;93.40;;;;;;4993291;28;20558;-74
2022/07/02 09:21:13;;;;;;;1.47;1.37;;;25.40;93.70;;;;;;5002548;28;20211;-74
2022/07/02 09:23:47;;;;;;;2.10;1.30;;;25.60;93.00;;;;;;4998103;28;20679;-72
2022/07/02 09:26:19;;;;;;;1.37;1.00;;;25.80;92.50;;;;;;4991581;28;20259;-74
2022/07/02 09:28:55;;;;;;;0.97;0.97;;;26.10;92.40;;;;;;5000640;28;20434;-74
2022/07/02 09:31:21;;;;;;;3.83;1.20;;;26.10;90.10;;;;;;5004160;28;20431;-74
2022/07/02 09:33:46;;;;;;;1.30;1.20;;;25.50;91.40;;;;;;5013012;28;20935;-75
2022/07/02 09:36:13;;;;;;;3.20;1.60;;;25.40;88.80;;;;;;4998550;28;21057;-74
2022/07/02 09:38:46;;;;;;;2.50;1.60;;;25.10;90.00;;;;;;5003423;28;20209;-75
2022/07/02 09:41:14;;;;;;;1.63;1.10;;;25.40;87.90;;;;;;4998576;28;20457;-74
2022/07/02 09:43:40;;;;;;;1.20;1.10;;;25.50;86.50;;;;;;5000663;28;20455;-74
2022/07/02 09:46:20;;;;;;;1.53;1.30;;;25.50;86.40;;;;;;4999777;28;20446;-74
2022/07/02 09:48:46;;;;;;;2.67;1.10;;;25.90;86.60;;;;;;4993598;28;20488;-74
2022/07/02 09:51:13;;;;;;;1.13;1.10;;;26.10;84.30;;;;;;4994365;28;20438;-74
2022/07/02 09:53:55;;;;;;;2.13;1.80;;;26.20;80.20;;;;;;4997204;28;20951;-74
2022/07/02 09:56:23;;;;;;;2.37;1.40;;;26.40;79.60;;;;;;5000476;28;20971;-74
2022/07/02 09:58:50;;;;;;;1.47;1.20;;;27.00;79.90;;;;;;4994699;28;20513;-74
2022/07/02 10:01:22;;;;;;;1.00;1.00;;;27.30;78.00;;;;;;4999217;28;21924;-74
2022/07/02 10:03:50;;;;;;;1.77;1.00;;;27.30;76.20;;;;;;4989438;28;20466;-74
2022/07/02 10:06:16;;;;;;;1.20;1.00;;;27.20;73.60;;;;;;4994392;28;20453;-74
2022/07/02 10:08:42;;;;;;;1.97;1.30;;;27.50;74.00;;;;;;5002821;28;20437;-72
2022/07/02 10:11:13;;;;;;;1.40;1.30;;;27.70;75.50;;;;;;4999647;28;20242;-72
2022/07/02 10:13:40;;;;;;;2.67;1.40;;;28.30;74.40;;;;;;4998542;28;20438;-73
2022/07/02 10:16:14;;;;;;;2.20;1.10;;;28.30;72.10;;;;;;5000802;28;20453;-73
2022/07/02 10:18:42;;;;;;;1.27;1.17;;;28.80;70.60;;;;;;4994549;28;20823;-72
2022/07/02 10:21:12;;;;;;;1.10;1.10;;;28.60;67.20;;;;;;4995512;28;20948;-71
2022/07/02 10:23:43;;;;;;;1.17;1.07;;;27.80;68.60;;;;;;4994508;28;20444;-71
2022/07/02 10:26:10;;;;;;;1.20;1.20;;;28.50;66.00;;;;;;5001029;28;20439;-71
2022/07/02 10:28:35;;;;;;;3.40;1.20;;;28.30;67.20;;;;;;4996225;28;20493;-72
2022/07/02 10:31:01;;;;;;;1.50;1.40;;;28.20;67.80;;;;;;4992762;28;20799;-73
2022/07/02 10:33:41;;;;;;;1.53;1.43;;;28.90;66.40;;;;;;4996727;28;20192;-71
2022/07/02 10:36:12;;;;;;;2.70;0.97;;;30.00;64.80;;;;;;5000740;28;20191;-72
2022/07/02 10:38:38;;;;;;;1.10;1.10;;;30.70;63.80;;;;;;4994165;28;20523;-71
2022/07/02 10:41:04;;;;;;;1.10;0.90;;;30.70;60.70;;;;;;4996621;28;20439;-72
2022/07/02 10:43:34;;;;;;;1.27;1.00;;;30.90;60.50;;;;;;4998476;28;20496;-73
2022/07/02 10:46:10;;;;;;;1.43;1.33;;;31.40;59.60;;;;;;4991266;28;20911;-72
2022/07/02 10:48:46;;;;;;;1.33;1.23;;;31.60;56.50;;;;;;5001925;28;20473;-72
2022/07/02 10:51:18;;;;;;;1.20;1.10;;;30.70;57.40;;;;;;4987758;28;20449;-75
2022/07/02 10:53:48;;;;;;;3.00;1.70;;;31.10;57.80;;;;;;4992271;28;20505;-74
2022/07/02 10:56:14;;;;;;;1.60;1.50;;;31.40;57.30;;;;;;4995264;28;20446;-73
2022/07/02 10:58:39;;;;;;;1.47;1.37;;;32.40;55.50;;;;;;4994999;28;20540;-74
2022/07/02 11:01:20;;;;;;;1.10;1.10;;;33.10;53.70;;;;;;4996513;28;20650;-72
2022/07/02 11:03:57;;;;;;;1.10;1.10;;;32.90;53.00;;;;;;4996271;28;20175;-72
2022/07/02 11:06:30;;;;;;;1.60;1.23;;;33.30;51.90;;;;;;4993076;28;20453;-72
2022/07/02 11:08:58;;;;;;;1.83;1.70;;;32.90;52.00;;;;;;5003285;28;20469;-73
2022/07/02 11:11:47;;;;;;;1.50;1.40;;;32.60;52.10;;;;;;5001940;28;20492;-73
2022/07/02 11:14:16;;;;;;;1.60;1.50;;;33.50;49.70;;;;;;4999265;28;20444;-73
2022/07/02 11:16:52;;;;;;;1.63;1.53;;;33.70;49.70;;;;;;5005753;28;21046;-73
2022/07/02 11:19:28;;;;;;;1.50;1.40;;;34.20;48.80;;;;;;5000588;28;20464;-69
2022/07/02 11:22:02;;;;;;;1.73;1.60;;;35.30;48.80;;;;;;4996444;28;21002;-71
2022/07/02 11:24:30;;;;;;;1.40;1.30;;;35.30;47.30;;;;;;4999432;28;20812;-71
2022/07/02 11:26:56;;;;;;;1.50;1.40;;;34.60;45.90;;;;;;4996368;28;21039;-73
2022/07/02 11:29:21;;;;;;;1.47;1.37;;;34.60;45.10;;;;;;4990187;28;20528;-72
2022/07/02 11:31:49;;;;;;;1.60;1.30;;;33.90;45.80;;;;;;4995725;28;20207;-73
2022/07/02 11:34:26;;;;;;;1.60;1.43;;;33.80;46.10;;;;;;5002618;28;20196;-74
2022/07/02 11:36:52;;;;;;;1.43;1.23;;;34.50;46.40;;;;;;4998324;28;20469;-73
2022/07/02 11:39:19;;;;;;;1.30;1.30;;;34.50;45.90;;;;;;5002156;28;20520;-73
2022/07/02 11:41:46;;;;;;;1.33;1.23;;;35.10;45.40;;;;;;5004489;28;20441;-74
2022/07/02 11:44:20;;;;;;;1.20;1.10;;;36.00;44.60;;;;;;4997209;28;20831;-73
2022/07/02 11:46:54;;;;;;;2.40;1.20;;;36.90;43.10;;;;;;5001722;28;20982;-73
2022/07/02 11:49:25;;;;;;;1.20;1.10;;;37.10;41.90;;;;;;5000240;28;20816;-70
2022/07/02 11:51:52;;;;;;;1.63;1.20;;;37.10;42.30;;;;;;5005046;28;20445;-70
2022/07/02 11:54:19;;;;;;;1.10;1.07;;;36.10;41.10;;;;;;5001097;28;20468;-73
2022/07/02 11:56:47;;;;;;;0.83;0.83;;;35.70;40.50;;;;;;4999725;28;20462;-73
2022/07/02 11:59:16;;;;;;;1.00;0.90;;;35.30;40.80;;;;;;4998038;28;20617;-73
2022/07/02 12:01:43;;;;;;;1.23;1.23;;;36.30;40.70;;;;;;5001026;28;20525;-72
2022/07/02 12:04:15;;;;;;;1.00;1.00;;;36.20;39.20;;;;;;4997244;28;20549;-74
2022/07/02 12:06:42;;;;;;;1.00;1.00;;;36.20;40.30;;;;;;5000001;28;20488;-71
2022/07/02 12:09:14;;;;;;;1.00;1.00;;;35.10;40.70;;;;;;5001157;28;20500;-70
2022/07/02 12:11:41;;;;;;;1.30;1.20;;;36.50;40.50;;;;;;5004569;28;20503;-69
2022/07/02 12:14:09;;;;;;;1.70;1.40;;;36.80;39.30;;;;;;5000003;28;20442;-69
2022/07/02 12:16:37;;;;;;;1.60;1.43;;;36.90;37.30;;;;;;4995933;28;20461;-69
2022/07/02 12:19:06;;;;;;;1.23;1.13;;;36.40;38.80;;;;;;4999354;28;20553;-70
2022/07/02 12:21:44;;;;;;;1.27;1.20;;;37.10;37.60;;;;;;4998917;28;20468;-69
2022/07/02 12:24:29;;;;;;;1.07;1.07;;;37.00;38.00;;;;;;4998752;28;20450;-69
2022/07/02 12:27:03;;;;;;;1.27;1.10;;;37.20;38.30;;;;;;4997426;28;20458;-70
2022/07/02 12:30:04;;;;;;;1.13;0.93;;;37.10;38.10;;;;;;4987040;28;20505;-69
2022/07/02 12:32:32;;;;;;;1.93;1.37;;;37.50;37.20;;;;;;4996900;28;20524;-72
2022/07/02 12:35:10;;;;;;;1.30;1.20;;;37.20;37.60;;;;;;5000745;28;20467;-70
2022/07/02 12:37:42;;;;;;;1.93;1.17;;;38.40;36.90;;;;;;5004184;28;20500;-72
2022/07/02 12:40:09;;;;;;;1.00;1.00;;;39.40;36.00;;;;;;4997097;28;20521;-72
2022/07/02 12:42:48;;;;;;;1.00;1.00;;;39.40;35.80;;;;;;5002737;28;21096;-73
2022/07/02 12:45:25;;;;;;;1.73;1.33;;;38.70;36.60;;;;;;5001129;28;20509;-72
2022/07/02 12:48:01;;;;;;;1.43;1.10;;;38.80;36.40;;;;;;5004033;28;20560;-74
2022/07/02 12:50:28;;;;;;;1.40;1.30;;;38.60;36.90;;;;;;4998286;28;20442;-72
2022/07/02 12:52:55;;;;;;;1.30;1.20;;;37.70;37.00;;;;;;4999706;28;20449;-72
2022/07/02 12:55:26;;;;;;;3.07;1.60;;;37.50;37.40;;;;;;4990437;28;20449;-72
2022/07/02 12:57:53;;;;;;;1.53;1.43;;;38.30;37.40;;;;;;4997624;28;20569;-73